createdAt,value
2023-01-27T00:00:36.829Z,36.20
2023-01-27T00:04:28.566Z,38.40
2023-01-27T00:08:01.293Z,39.90
2023-01-27T00:12:21.695Z,32.60
2023-01-27T00:16:57.559Z,28.50
2023-01-27T00:21:00.974Z,25.70
2023-01-27T00:24:59.453Z,21.70
2023-01-27T00:28:42.514Z,24.80
2023-01-27T00:33:08.447Z,21.00
2023-01-27T00:37:12.586Z,19.20
2023-01-27T00:41:27.248Z,14.30
2023-01-27T00:45:39.725Z,16.40
2023-01-27T00:53:34.253Z,19.00
2023-01-27T00:57:36.293Z,17.50
2023-01-27T01:01:35.079Z,18.00
2023-01-27T01:10:01.249Z,23.70
2023-01-27T01:14:01.402Z,18.70
2023-01-27T01:18:05.745Z,15.10
2023-01-27T01:21:49.619Z,19.30
2023-01-27T01:25:49.975Z,27.60
2023-01-27T01:30:17.248Z,17.50
2023-01-27T01:34:11.873Z,28.40
2023-01-27T01:38:09.405Z,19.20
2023-01-27T01:42:03.558Z,16.70
2023-01-27T01:51:21.196Z,15.40
2023-01-27T01:55:30.756Z,16.70
2023-01-27T01:59:41.271Z,24.20
2023-01-27T02:03:47.639Z,24.60
2023-01-27T02:08:03.537Z,27.50
2023-01-27T02:12:16.016Z,10.60
2023-01-27T02:16:03.737Z,29.20
2023-01-27T02:20:13.576Z,35.80
2023-01-27T02:24:37.772Z,35.30
2023-01-27T02:28:48.863Z,38.10
2023-01-27T02:32:36.164Z,40.50
2023-01-27T02:37:23.371Z,36.20
2023-01-27T02:41:19.574Z,34.20
2023-01-27T02:45:51.216Z,31.80
2023-01-27T02:49:55.990Z,25.40
2023-01-27T02:53:44.536Z,28.00
2023-01-27T02:57:44.586Z,28.80
2023-01-27T03:02:09.354Z,25.90
2023-01-27T03:06:16.585Z,27.60
2023-01-27T03:10:32.582Z,26.40
2023-01-27T03:15:02.305Z,28.70
2023-01-27T03:19:21.697Z,34.30
2023-01-27T03:23:43.590Z,30.80
2023-01-27T03:27:44.581Z,33.90
2023-01-27T03:31:59.713Z,26.70
2023-01-27T03:36:05.443Z,25.70
2023-01-27T03:40:16.144Z,33.70
2023-01-27T03:44:13.497Z,32.50
2023-01-27T03:48:27.807Z,32.70
2023-01-27T03:52:45.616Z,23.60
2023-01-27T03:56:42.035Z,30.10
2023-01-27T04:01:18.220Z,27.10
2023-01-27T04:05:59.247Z,24.60
2023-01-27T04:18:57.741Z,24.00
2023-01-27T04:23:16.998Z,21.90
2023-01-27T04:27:38.767Z,25.40
2023-01-27T04:31:39.940Z,19.90
2023-01-27T04:35:38.388Z,23.50
2023-01-27T04:39:09.621Z,21.00
2023-01-27T04:43:29.687Z,28.80
2023-01-27T04:47:54.686Z,28.20
2023-01-27T04:52:04.826Z,32.30
2023-01-27T05:00:48.276Z,32.20
2023-01-27T05:05:12.267Z,30.90
2023-01-27T05:09:16.173Z,28.40
2023-01-27T07:51:12.572Z,35.30
2023-01-27T08:12:43.151Z,29.90
2023-01-27T08:28:09.379Z,25.20
2023-01-27T08:35:49.400Z,26.70
2023-01-27T08:46:25.463Z,28.50
2023-01-27T08:54:21.916Z,27.50
2023-01-27T09:05:47.455Z,26.00
2023-01-27T09:09:25.439Z,28.10
2023-01-27T09:16:45.474Z,26.00
2023-01-27T09:20:43.482Z,25.70
2023-01-27T09:24:40.374Z,25.10
2023-01-27T09:28:34.400Z,27.80
2023-01-27T09:35:47.476Z,28.40
2023-01-27T09:39:50.050Z,21.30
2023-01-27T09:43:41.569Z,26.30
2023-01-27T09:52:08.514Z,24.00
2023-01-27T10:12:44.169Z,26.30
2023-01-27T10:17:15.027Z,30.30
2023-01-27T10:24:01.510Z,29.80
2023-01-27T10:31:57.228Z,25.10
2023-01-27T10:39:50.208Z,13.40
2023-01-27T10:43:34.307Z,23.80
2023-01-27T10:54:59.195Z,29.00
2023-01-27T10:58:49.190Z,33.30
2023-01-27T11:06:31.420Z,31.70
2023-01-27T11:10:27.232Z,34.00
2023-01-27T11:18:05.266Z,28.00
2023-01-27T11:22:09.105Z,30.80
2023-01-27T11:25:58.385Z,25.50
2023-01-27T11:33:30.210Z,31.40
2023-01-27T11:41:16.249Z,30.50
2023-01-27T11:45:12.269Z,18.20
2023-01-27T11:52:46.276Z,31.70
2023-01-27T11:56:32.168Z,24.60
2023-01-27T12:00:38.260Z,15.80
2023-01-27T12:08:12.196Z,23.20
2023-01-27T12:12:13.254Z,13.30
2023-01-27T12:27:11.316Z,26.90
2023-01-27T12:30:39.166Z,28.10
2023-01-27T12:49:44.201Z,22.60
2023-01-27T13:01:22.289Z,23.00
2023-01-27T13:04:56.276Z,21.90
2023-01-27T16:52:14.476Z,27.70
2023-01-27T16:59:52.642Z,21.10
2023-01-27T17:04:29.554Z,15.70
2023-01-27T17:08:09.443Z,12.70
2023-01-27T17:19:17.634Z,15.10
2023-01-27T17:23:27.773Z,14.30
2023-01-27T17:28:09.477Z,11.80
2023-01-27T17:32:18.060Z,24.90
2023-01-27T17:36:37.605Z,12.90
2023-01-27T17:40:26.746Z,12.80
2023-01-27T17:44:26.568Z,21.00
2023-01-27T17:48:29.242Z,21.50
2023-01-27T17:52:43.015Z,23.20
2023-01-27T17:56:38.757Z,22.80
2023-01-27T18:00:38.273Z,19.80
2023-01-27T18:04:33.065Z,22.90
2023-01-27T18:08:18.346Z,13.60
2023-01-27T18:12:15.402Z,19.00
2023-01-27T18:16:24.637Z,17.10
2023-01-27T18:20:20.776Z,16.40
2023-01-27T18:24:29.123Z,12.50
2023-01-27T18:28:24.318Z,21.10
2023-01-27T18:32:38.141Z,21.20
2023-01-27T18:36:47.146Z,19.40
2023-01-27T18:48:25.644Z,21.60
2023-01-27T18:51:50.550Z,25.60
2023-01-27T18:55:53.794Z,21.90
2023-01-27T19:04:17.024Z,24.30
2023-01-27T19:11:06.623Z,27.00
2023-01-27T19:18:59.653Z,21.60
2023-01-27T19:22:40.658Z,23.70
2023-01-27T19:36:23.658Z,23.50
2023-01-27T19:48:52.794Z,23.90
2023-01-27T19:52:41.510Z,21.90
2023-01-27T19:56:13.601Z,20.00
2023-01-27T20:11:44.828Z,25.50
2023-01-27T20:18:31.831Z,23.00
2023-01-27T20:22:04.802Z,23.20
2023-01-27T20:25:42.862Z,22.60
2023-01-27T20:29:41.858Z,21.50
2023-01-27T20:33:16.216Z,20.70
2023-01-27T20:40:59.434Z,21.60
2023-01-27T20:44:31.858Z,18.00
2023-01-27T20:52:27.796Z,23.70
2023-01-27T20:56:18.863Z,21.30
2023-01-27T21:04:20.078Z,23.40
2023-01-27T21:15:14.255Z,23.70
2023-01-27T21:19:09.081Z,20.10
2023-01-27T21:26:25.061Z,28.50
2023-01-27T21:30:32.079Z,28.90
2023-01-27T21:34:35.051Z,28.20
2023-01-27T21:38:20.671Z,20.50
2023-01-27T21:42:07.096Z,17.20
2023-01-27T21:49:42.103Z,18.80
2023-01-27T21:53:38.127Z,25.40
2023-01-27T21:57:31.149Z,22.60
2023-01-27T22:01:02.171Z,13.60
2023-01-27T22:04:37.699Z,16.10
2023-01-27T22:40:40.613Z,21.80
2023-01-27T22:48:25.425Z,27.20
2023-01-27T22:52:12.717Z,19.20
2023-01-27T22:55:51.624Z,19.30
2023-01-27T22:59:35.667Z,15.30
2023-01-27T23:03:12.636Z,11.20
2023-01-27T23:10:27.622Z,26.50
2023-01-27T23:14:25.613Z,15.40
2023-01-27T23:25:37.691Z,15.30
2023-01-27T23:29:46.681Z,20.90
2023-01-27T23:33:48.714Z,27.00
2023-01-27T23:38:32.098Z,18.00
2023-01-27T23:42:32.632Z,19.40
2023-01-27T23:46:09.698Z,22.60
2023-01-27T23:49:41.704Z,20.10
2023-01-27T23:53:37.686Z,22.80
2023-01-27T23:57:41.702Z,15.30
